Portada
METAR-TAF:

METAR-TAF

Aeroports :

Tateyama, Japó

latitud: 34-59N, longitud: 139-50E, altitud: 3 m

Observació

L'informe es va fer fa 11 hores i 58 minuts, a les 21:36 UTC
Vent 23 kt del Nord-Est amb ràfegues de 35 kt
Temperatura 6°C
Humitat 42%
Pressió 1021 hPa
Visibilitat 10 km o més
Escasses núvols a una alçada de 1500 ft
Cel ennuvolat a una alçada de 23000 ft

METAR: RJTE 262136Z 04023G35KT 9999 FEW015 BKN230 06/M06 Q1021 RMK 1CU015 A3016

Hora: 18:34 (09:34 UTC)


TAF: manca

Observacions i pronòstics meteorològics de més de 4000 aeroports (METAR i TAF).

Les estacions disponibles són els punts grocs i vermells al mapa.

Posi el ratolí al punt desitjat per veure el nom de l'estació.

Feu clic per veure les observacions i els pronòstics meteorològics.

Per canviar el mapa: feu clic els botons verds amb una creu de color negre per apropar; al botó verd amb un guió per allunyar la imatge; o en les fletxes verdes per a mapes adjacents.


METAR-TAF: